sensor_id;sensor_type;location;lat;lon;timestamp;P1;durP1;ratioP1;P2;durP2;ratioP2
22648;SDS011;11491;41.942;24.220;2023-01-29T00:00:03;7.30;;;4.57;;
22648;SDS011;11491;41.942;24.220;2023-01-29T00:02:34;7.30;;;4.53;;
22648;SDS011;11491;41.942;24.220;2023-01-29T00:05:05;6.60;;;5.15;;
22648;SDS011;11491;41.942;24.220;2023-01-29T00:07:32;7.93;;;4.80;;
22648;SDS011;11491;41.942;24.220;2023-01-29T00:09:59;9.65;;;6.25;;
22648;SDS011;11491;41.942;24.220;2023-01-29T00:12:26;7.28;;;4.80;;
22648;SDS011;11491;41.942;24.220;2023-01-29T00:14:53;10.48;;;5.50;;
22648;SDS011;11491;41.942;24.220;2023-01-29T00:17:20;19.15;;;10.55;;
22648;SDS011;11491;41.942;24.220;2023-01-29T00:19:46;28.75;;;14.45;;
22648;SDS011;11491;41.942;24.220;2023-01-29T00:22:14;28.80;;;15.80;;
22648;SDS011;11491;41.942;24.220;2023-01-29T00:24:41;27.05;;;15.80;;
22648;SDS011;11491;41.942;24.220;2023-01-29T00:27:08;25.65;;;16.23;;
22648;SDS011;11491;41.942;24.220;2023-01-29T00:29:35;23.00;;;14.65;;
22648;SDS011;11491;41.942;24.220;2023-01-29T00:32:02;22.10;;;14.57;;
22648;SDS011;11491;41.942;24.220;2023-01-29T00:34:29;27.48;;;20.42;;
22648;SDS011;11491;41.942;24.220;2023-01-29T00:36:55;16.92;;;11.25;;
22648;SDS011;11491;41.942;24.220;2023-01-29T00:39:30;18.88;;;12.98;;
22648;SDS011;11491;41.942;24.220;2023-01-29T00:42:04;33.72;;;18.50;;
22648;SDS011;11491;41.942;24.220;2023-01-29T00:44:48;32.92;;;18.00;;
22648;SDS011;11491;41.942;24.220;2023-01-29T00:47:24;27.38;;;16.17;;
22648;SDS011;11491;41.942;24.220;2023-01-29T00:49:57;27.33;;;14.45;;
22648;SDS011;11491;41.942;24.220;2023-01-29T00:52:24;30.85;;;17.42;;
22648;SDS011;11491;41.942;24.220;2023-01-29T00:54:54;25.35;;;15.27;;
22648;SDS011;11491;41.942;24.220;2023-01-29T00:57:22;22.42;;;13.07;;
22648;SDS011;11491;41.942;24.220;2023-01-29T00:59:50;16.65;;;10.00;;
22648;SDS011;11491;41.942;24.220;2023-01-29T01:02:17;13.38;;;7.32;;
22648;SDS011;11491;41.942;24.220;2023-01-29T01:05:03;11.73;;;7.05;;
22648;SDS011;11491;41.942;24.220;2023-01-29T01:07:31;12.95;;;7.22;;
22648;SDS011;11491;41.942;24.220;2023-01-29T01:10:00;11.05;;;7.22;;
22648;SDS011;11491;41.942;24.220;2023-01-29T01:12:44;13.25;;;8.40;;
22648;SDS011;11491;41.942;24.220;2023-01-29T01:15:11;15.82;;;9.88;;
22648;SDS011;11491;41.942;24.220;2023-01-29T01:17:38;14.60;;;10.00;;
22648;SDS011;11491;41.942;24.220;2023-01-29T01:20:05;18.73;;;11.55;;
22648;SDS011;11491;41.942;24.220;2023-01-29T01:22:32;19.40;;;12.05;;
22648;SDS011;11491;41.942;24.220;2023-01-29T01:25:01;20.98;;;12.38;;
22648;SDS011;11491;41.942;24.220;2023-01-29T01:27:28;28.13;;;15.27;;
22648;SDS011;11491;41.942;24.220;2023-01-29T01:29:54;22.67;;;13.80;;
22648;SDS011;11491;41.942;24.220;2023-01-29T01:32:21;24.50;;;14.60;;
22648;SDS011;11491;41.942;24.220;2023-01-29T01:34:48;30.25;;;17.63;;
22648;SDS011;11491;41.942;24.220;2023-01-29T01:37:14;28.30;;;16.30;;
22648;SDS011;11491;41.942;24.220;2023-01-29T01:39:41;23.88;;;15.00;;
22648;SDS011;11491;41.942;24.220;2023-01-29T01:42:14;25.67;;;15.68;;
22648;SDS011;11491;41.942;24.220;2023-01-29T01:47:21;30.20;;;18.10;;
22648;SDS011;11491;41.942;24.220;2023-01-29T01:49:53;32.78;;;18.58;;
22648;SDS011;11491;41.942;24.220;2023-01-29T01:52:23;23.83;;;13.98;;
22648;SDS011;11491;41.942;24.220;2023-01-29T01:54:49;32.15;;;18.90;;
22648;SDS011;11491;41.942;24.220;2023-01-29T01:57:19;22.67;;;14.02;;
22648;SDS011;11491;41.942;24.220;2023-01-29T01:59:51;20.30;;;13.32;;
22648;SDS011;11491;41.942;24.220;2023-01-29T02:02:23;22.85;;;14.02;;
22648;SDS011;11491;41.942;24.220;2023-01-29T02:05:09;23.92;;;14.38;;
22648;SDS011;11491;41.942;24.220;2023-01-29T02:07:55;22.92;;;14.60;;
22648;SDS011;11491;41.942;24.220;2023-01-29T02:10:44;25.70;;;15.15;;
22648;SDS011;11491;41.942;24.220;2023-01-29T02:13:15;28.25;;;16.73;;
22648;SDS011;11491;41.942;24.220;2023-01-29T02:15:42;24.40;;;15.75;;
22648;SDS011;11491;41.942;24.220;2023-01-29T02:18:11;22.30;;;14.10;;
22648;SDS011;11491;41.942;24.220;2023-01-29T02:20:38;19.00;;;12.93;;
22648;SDS011;11491;41.942;24.220;2023-01-29T02:23:19;20.33;;;11.88;;
22648;SDS011;11491;41.942;24.220;2023-01-29T02:29:09;20.13;;;12.27;;
22648;SDS011;11491;41.942;24.220;2023-01-29T02:32:03;16.98;;;9.43;;
22648;SDS011;11491;41.942;24.220;2023-01-29T02:34:44;13.55;;;9.48;;
22648;SDS011;11491;41.942;24.220;2023-01-29T02:37:35;16.05;;;9.70;;
22648;SDS011;11491;41.942;24.220;2023-01-29T02:40:11;18.33;;;11.17;;
22648;SDS011;11491;41.942;24.220;2023-01-29T02:42:45;13.90;;;9.25;;
22648;SDS011;11491;41.942;24.220;2023-01-29T02:45:21;14.63;;;10.10;;
22648;SDS011;11491;41.942;24.220;2023-01-29T02:47:56;15.73;;;9.98;;
22648;SDS011;11491;41.942;24.220;2023-01-29T02:50:25;14.98;;;9.88;;
22648;SDS011;11491;41.942;24.220;2023-01-29T02:52:59;17.02;;;10.82;;
22648;SDS011;11491;41.942;24.220;2023-01-29T02:55:31;15.85;;;10.05;;
22648;SDS011;11491;41.942;24.220;2023-01-29T02:58:03;15.57;;;10.85;;
22648;SDS011;11491;41.942;24.220;2023-01-29T03:00:38;17.17;;;10.43;;
22648;SDS011;11491;41.942;24.220;2023-01-29T03:03:10;11.52;;;8.02;;
22648;SDS011;11491;41.942;24.220;2023-01-29T03:05:44;18.80;;;12.23;;
22648;SDS011;11491;41.942;24.220;2023-01-29T03:08:19;16.35;;;10.77;;
22648;SDS011;11491;41.942;24.220;2023-01-29T03:11:10;15.02;;;10.07;;
22648;SDS011;11491;41.942;24.220;2023-01-29T03:13:40;19.90;;;12.45;;
22648;SDS011;11491;41.942;24.220;2023-01-29T03:16:17;19.00;;;12.07;;
22648;SDS011;11491;41.942;24.220;2023-01-29T03:18:50;19.48;;;12.23;;
22648;SDS011;11491;41.942;24.220;2023-01-29T03:21:21;19.27;;;12.40;;
22648;SDS011;11491;41.942;24.220;2023-01-29T03:24:11;17.25;;;11.32;;
22648;SDS011;11491;41.942;24.220;2023-01-29T03:26:57;18.42;;;10.82;;
22648;SDS011;11491;41.942;24.220;2023-01-29T03:29:46;19.13;;;11.65;;
22648;SDS011;11491;41.942;24.220;2023-01-29T03:32:34;17.85;;;11.10;;
22648;SDS011;11491;41.942;24.220;2023-01-29T03:35:05;18.70;;;10.95;;
22648;SDS011;11491;41.942;24.220;2023-01-29T03:37:35;16.15;;;10.48;;
22648;SDS011;11491;41.942;24.220;2023-01-29T03:40:07;15.60;;;9.88;;
22648;SDS011;11491;41.942;24.220;2023-01-29T03:42:37;15.65;;;10.05;;
22648;SDS011;11491;41.942;24.220;2023-01-29T03:45:18;16.13;;;10.00;;
22648;SDS011;11491;41.942;24.220;2023-01-29T03:47:55;19.35;;;11.50;;
22648;SDS011;11491;41.942;24.220;2023-01-29T03:50:32;15.80;;;10.82;;
22648;SDS011;11491;41.942;24.220;2023-01-29T03:53:04;16.65;;;11.45;;
22648;SDS011;11491;41.942;24.220;2023-01-29T03:55:40;16.38;;;10.52;;
22648;SDS011;11491;41.942;24.220;2023-01-29T03:58:15;15.55;;;10.30;;
22648;SDS011;11491;41.942;24.220;2023-01-29T04:00:50;15.77;;;9.35;;
22648;SDS011;11491;41.942;24.220;2023-01-29T04:03:23;93.30;;;36.08;;
22648;SDS011;11491;41.942;24.220;2023-01-29T04:05:58;39.17;;;20.65;;
22648;SDS011;11491;41.942;24.220;2023-01-29T04:08:34;18.58;;;11.73;;
22648;SDS011;11491;41.942;24.220;2023-01-29T04:11:07;19.35;;;12.85;;
22648;SDS011;11491;41.942;24.220;2023-01-29T04:13:37;45.58;;;26.58;;
22648;SDS011;11491;41.942;24.220;2023-01-29T04:16:05;35.33;;;21.85;;
22648;SDS011;11491;41.942;24.220;2023-01-29T04:18:39;30.27;;;18.65;;
22648;SDS011;11491;41.942;24.220;2023-01-29T04:21:09;21.52;;;14.10;;
22648;SDS011;11491;41.942;24.220;2023-01-29T04:23:36;20.30;;;12.77;;
22648;SDS011;11491;41.942;24.220;2023-01-29T04:26:08;19.10;;;12.40;;
22648;SDS011;11491;41.942;24.220;2023-01-29T04:29:04;18.98;;;12.55;;
22648;SDS011;11491;41.942;24.220;2023-01-29T04:31:50;18.83;;;11.45;;
22648;SDS011;11491;41.942;24.220;2023-01-29T04:34:28;21.60;;;16.10;;
22648;SDS011;11491;41.942;24.220;2023-01-29T04:37:04;32.20;;;21.42;;
22648;SDS011;11491;41.942;24.220;2023-01-29T04:39:39;17.77;;;12.68;;
22648;SDS011;11491;41.942;24.220;2023-01-29T04:42:14;19.10;;;11.93;;
22648;SDS011;11491;41.942;24.220;2023-01-29T04:44:49;18.10;;;10.70;;
22648;SDS011;11491;41.942;24.220;2023-01-29T04:47:25;13.85;;;9.10;;
22648;SDS011;11491;41.942;24.220;2023-01-29T04:50:02;14.32;;;8.65;;
22648;SDS011;11491;41.942;24.220;2023-01-29T04:52:40;13.63;;;9.23;;
22648;SDS011;11491;41.942;24.220;2023-01-29T04:55:14;15.10;;;9.77;;
22648;SDS011;11491;41.942;24.220;2023-01-29T04:57:46;12.40;;;7.70;;
22648;SDS011;11491;41.942;24.220;2023-01-29T05:00:19;14.18;;;9.52;;
22648;SDS011;11491;41.942;24.220;2023-01-29T05:02:50;13.90;;;9.10;;
22648;SDS011;11491;41.942;24.220;2023-01-29T05:05:19;13.90;;;9.35;;
22648;SDS011;11491;41.942;24.220;2023-01-29T05:07:46;16.13;;;10.50;;
22648;SDS011;11491;41.942;24.220;2023-01-29T05:10:14;13.90;;;9.63;;
22648;SDS011;11491;41.942;24.220;2023-01-29T05:12:45;13.15;;;9.20;;
22648;SDS011;11491;41.942;24.220;2023-01-29T05:15:17;16.23;;;11.25;;
22648;SDS011;11491;41.942;24.220;2023-01-29T05:17:48;50.08;;;30.17;;
22648;SDS011;11491;41.942;24.220;2023-01-29T05:20:15;40.45;;;21.60;;
22648;SDS011;11491;41.942;24.220;2023-01-29T05:22:43;19.67;;;13.82;;
22648;SDS011;11491;41.942;24.220;2023-01-29T05:25:18;27.55;;;21.00;;
22648;SDS011;11491;41.942;24.220;2023-01-29T05:27:47;29.58;;;20.73;;
22648;SDS011;11491;41.942;24.220;2023-01-29T05:30:34;14.82;;;10.57;;
22648;SDS011;11491;41.942;24.220;2023-01-29T05:33:03;23.25;;;17.02;;
22648;SDS011;11491;41.942;24.220;2023-01-29T05:35:30;34.85;;;23.30;;
22648;SDS011;11491;41.942;24.220;2023-01-29T05:37:59;17.83;;;11.52;;
22648;SDS011;11491;41.942;24.220;2023-01-29T05:40:26;13.95;;;9.85;;
22648;SDS011;11491;41.942;24.220;2023-01-29T05:42:52;12.93;;;9.65;;
22648;SDS011;11491;41.942;24.220;2023-01-29T05:45:19;20.60;;;14.00;;
22648;SDS011;11491;41.942;24.220;2023-01-29T05:47:46;26.80;;;18.83;;
22648;SDS011;11491;41.942;24.220;2023-01-29T05:50:13;52.03;;;27.83;;
22648;SDS011;11491;41.942;24.220;2023-01-29T05:52:41;64.75;;;36.97;;
22648;SDS011;11491;41.942;24.220;2023-01-29T05:55:09;33.03;;;19.92;;
22648;SDS011;11491;41.942;24.220;2023-01-29T05:57:36;36.13;;;21.00;;
22648;SDS011;11491;41.942;24.220;2023-01-29T06:00:05;24.20;;;17.45;;
22648;SDS011;11491;41.942;24.220;2023-01-29T06:02:32;57.03;;;35.67;;
22648;SDS011;11491;41.942;24.220;2023-01-29T06:04:59;52.50;;;30.75;;
22648;SDS011;11491;41.942;24.220;2023-01-29T06:07:26;76.55;;;46.53;;
22648;SDS011;11491;41.942;24.220;2023-01-29T06:09:52;61.80;;;37.53;;
22648;SDS011;11491;41.942;24.220;2023-01-29T06:12:20;62.53;;;38.17;;
22648;SDS011;11491;41.942;24.220;2023-01-29T06:14:47;79.10;;;46.28;;
22648;SDS011;11491;41.942;24.220;2023-01-29T06:17:14;67.25;;;42.60;;
22648;SDS011;11491;41.942;24.220;2023-01-29T06:19:41;77.05;;;47.40;;
22648;SDS011;11491;41.942;24.220;2023-01-29T06:22:07;63.85;;;40.13;;
22648;SDS011;11491;41.942;24.220;2023-01-29T06:24:34;59.03;;;38.97;;
22648;SDS011;11491;41.942;24.220;2023-01-29T06:27:01;76.68;;;51.47;;
22648;SDS011;11491;41.942;24.220;2023-01-29T06:29:30;66.78;;;44.97;;
22648;SDS011;11491;41.942;24.220;2023-01-29T06:31:56;58.67;;;39.97;;
22648;SDS011;11491;41.942;24.220;2023-01-29T06:34:23;33.17;;;24.92;;
22648;SDS011;11491;41.942;24.220;2023-01-29T06:36:50;17.73;;;12.73;;
22648;SDS011;11491;41.942;24.220;2023-01-29T06:39:16;26.13;;;16.73;;
22648;SDS011;11491;41.942;24.220;2023-01-29T06:41:43;21.52;;;13.32;;
22648;SDS011;11491;41.942;24.220;2023-01-29T06:44:10;21.58;;;14.27;;
22648;SDS011;11491;41.942;24.220;2023-01-29T06:46:38;19.25;;;12.65;;
22648;SDS011;11491;41.942;24.220;2023-01-29T06:49:05;24.10;;;16.42;;
22648;SDS011;11491;41.942;24.220;2023-01-29T06:51:32;67.68;;;39.70;;
22648;SDS011;11491;41.942;24.220;2023-01-29T06:53:58;23.05;;;15.13;;
22648;SDS011;11491;41.942;24.220;2023-01-29T06:56:25;37.92;;;21.67;;
22648;SDS011;11491;41.942;24.220;2023-01-29T06:58:52;20.30;;;14.25;;
22648;SDS011;11491;41.942;24.220;2023-01-29T07:01:19;20.15;;;11.80;;
22648;SDS011;11491;41.942;24.220;2023-01-29T07:03:49;22.02;;;14.32;;
22648;SDS011;11491;41.942;24.220;2023-01-29T07:06:15;17.27;;;11.15;;
22648;SDS011;11491;41.942;24.220;2023-01-29T07:08:42;15.30;;;10.63;;
22648;SDS011;11491;41.942;24.220;2023-01-29T07:11:09;32.20;;;22.00;;
22648;SDS011;11491;41.942;24.220;2023-01-29T07:13:36;18.48;;;14.13;;
22648;SDS011;11491;41.942;24.220;2023-01-29T07:16:03;23.23;;;16.65;;
22648;SDS011;11491;41.942;24.220;2023-01-29T07:18:31;30.15;;;18.45;;
22648;SDS011;11491;41.942;24.220;2023-01-29T07:21:02;28.75;;;19.20;;
22648;SDS011;11491;41.942;24.220;2023-01-29T07:23:29;17.77;;;11.63;;
22648;SDS011;11491;41.942;24.220;2023-01-29T07:25:59;17.17;;;11.63;;
22648;SDS011;11491;41.942;24.220;2023-01-29T07:28:27;15.75;;;12.75;;
22648;SDS011;11491;41.942;24.220;2023-01-29T07:30:54;12.18;;;7.90;;
22648;SDS011;11491;41.942;24.220;2023-01-29T07:33:22;48.92;;;23.73;;
22648;SDS011;11491;41.942;24.220;2023-01-29T07:35:51;23.52;;;14.40;;
22648;SDS011;11491;41.942;24.220;2023-01-29T07:38:20;10.70;;;8.48;;
22648;SDS011;11491;41.942;24.220;2023-01-29T07:40:47;26.25;;;15.98;;
22648;SDS011;11491;41.942;24.220;2023-01-29T07:43:14;10.52;;;6.70;;
22648;SDS011;11491;41.942;24.220;2023-01-29T07:45:41;28.02;;;14.95;;
22648;SDS011;11491;41.942;24.220;2023-01-29T07:48:08;53.10;;;24.90;;
22648;SDS011;11491;41.942;24.220;2023-01-29T07:50:37;30.80;;;14.00;;
22648;SDS011;11491;41.942;24.220;2023-01-29T07:53:04;32.00;;;15.95;;
22648;SDS011;11491;41.942;24.220;2023-01-29T07:55:32;9.70;;;7.90;;
22648;SDS011;11491;41.942;24.220;2023-01-29T07:58:00;54.88;;;25.02;;
22648;SDS011;11491;41.942;24.220;2023-01-29T08:00:30;11.70;;;8.02;;
22648;SDS011;11491;41.942;24.220;2023-01-29T08:03:02;25.65;;;16.80;;
22648;SDS011;11491;41.942;24.220;2023-01-29T08:05:30;40.50;;;20.48;;
22648;SDS011;11491;41.942;24.220;2023-01-29T08:07:57;15.82;;;9.05;;
22648;SDS011;11491;41.942;24.220;2023-01-29T08:10:24;20.52;;;10.65;;
22648;SDS011;11491;41.942;24.220;2023-01-29T08:12:56;9.70;;;6.13;;
22648;SDS011;11491;41.942;24.220;2023-01-29T08:15:24;22.10;;;12.60;;
22648;SDS011;11491;41.942;24.220;2023-01-29T08:17:51;13.55;;;7.25;;
22648;SDS011;11491;41.942;24.220;2023-01-29T08:20:19;10.73;;;7.20;;
22648;SDS011;11491;41.942;24.220;2023-01-29T08:22:47;81.68;;;32.10;;
22648;SDS011;11491;41.942;24.220;2023-01-29T08:25:14;47.00;;;22.40;;
22648;SDS011;11491;41.942;24.220;2023-01-29T08:27:41;47.30;;;24.83;;
22648;SDS011;11491;41.942;24.220;2023-01-29T08:30:10;11.88;;;8.63;;
22648;SDS011;11491;41.942;24.220;2023-01-29T08:32:37;16.35;;;11.25;;
22648;SDS011;11491;41.942;24.220;2023-01-29T08:35:04;27.73;;;19.33;;
22648;SDS011;11491;41.942;24.220;2023-01-29T08:37:31;18.05;;;12.95;;
22648;SDS011;11491;41.942;24.220;2023-01-29T08:39:58;47.65;;;25.77;;
22648;SDS011;11491;41.942;24.220;2023-01-29T08:42:25;31.83;;;17.98;;
22648;SDS011;11491;41.942;24.220;2023-01-29T08:44:51;10.20;;;5.85;;
22648;SDS011;11491;41.942;24.220;2023-01-29T08:47:19;25.17;;;16.40;;
22648;SDS011;11491;41.942;24.220;2023-01-29T08:49:46;22.77;;;15.55;;
22648;SDS011;11491;41.942;24.220;2023-01-29T08:52:13;11.95;;;8.65;;
22648;SDS011;11491;41.942;24.220;2023-01-29T08:54:40;5.88;;;4.25;;
22648;SDS011;11491;41.942;24.220;2023-01-29T08:57:06;19.23;;;11.32;;
22648;SDS011;11491;41.942;24.220;2023-01-29T08:59:33;19.27;;;12.55;;
22648;SDS011;11491;41.942;24.220;2023-01-29T09:02:00;34.05;;;21.35;;
22648;SDS011;11491;41.942;24.220;2023-01-29T09:04:28;29.30;;;20.58;;
22648;SDS011;11491;41.942;24.220;2023-01-29T09:06:55;35.22;;;23.42;;
22648;SDS011;11491;41.942;24.220;2023-01-29T09:09:21;15.13;;;11.98;;
22648;SDS011;11491;41.942;24.220;2023-01-29T09:11:48;20.15;;;10.70;;
22648;SDS011;11491;41.942;24.220;2023-01-29T09:14:15;30.50;;;17.25;;
22648;SDS011;11491;41.942;24.220;2023-01-29T09:16:42;30.10;;;18.02;;
22648;SDS011;11491;41.942;24.220;2023-01-29T09:19:08;18.40;;;11.68;;
22648;SDS011;11491;41.942;24.220;2023-01-29T09:21:36;40.53;;;23.83;;
22648;SDS011;11491;41.942;24.220;2023-01-29T09:24:03;13.60;;;8.20;;
22648;SDS011;11491;41.942;24.220;2023-01-29T09:26:31;22.40;;;12.13;;
22648;SDS011;11491;41.942;24.220;2023-01-29T09:28:57;14.57;;;9.70;;
22648;SDS011;11491;41.942;24.220;2023-01-29T09:31:24;10.60;;;6.90;;
22648;SDS011;11491;41.942;24.220;2023-01-29T09:33:51;20.77;;;11.98;;
22648;SDS011;11491;41.942;24.220;2023-01-29T09:36:18;11.55;;;7.38;;
22648;SDS011;11491;41.942;24.220;2023-01-29T09:38:46;13.60;;;9.57;;
22648;SDS011;11491;41.942;24.220;2023-01-29T09:41:16;40.85;;;28.55;;
22648;SDS011;11491;41.942;24.220;2023-01-29T09:43:55;71.75;;;43.75;;
22648;SDS011;11491;41.942;24.220;2023-01-29T09:46:26;17.80;;;12.05;;
22648;SDS011;11491;41.942;24.220;2023-01-29T09:49:00;20.65;;;14.32;;
22648;SDS011;11491;41.942;24.220;2023-01-29T09:51:33;20.42;;;14.82;;
22648;SDS011;11491;41.942;24.220;2023-01-29T09:54:09;28.60;;;18.70;;
22648;SDS011;11491;41.942;24.220;2023-01-29T09:56:41;60.40;;;38.28;;
22648;SDS011;11491;41.942;24.220;2023-01-29T09:59:10;25.65;;;19.60;;
22648;SDS011;11491;41.942;24.220;2023-01-29T10:01:40;22.95;;;15.35;;
22648;SDS011;11491;41.942;24.220;2023-01-29T10:07:25;13.40;;;9.90;;
22648;SDS011;11491;41.942;24.220;2023-01-29T10:10:11;20.43;;;15.77;;
22648;SDS011;11491;41.942;24.220;2023-01-29T10:12:51;34.60;;;20.92;;
22648;SDS011;11491;41.942;24.220;2023-01-29T10:15:28;20.55;;;12.88;;
22648;SDS011;11491;41.942;24.220;2023-01-29T10:18:15;17.45;;;11.95;;
22648;SDS011;11491;41.942;24.220;2023-01-29T10:21:01;41.33;;;25.73;;
22648;SDS011;11491;41.942;24.220;2023-01-29T10:23:37;41.65;;;26.35;;
22648;SDS011;11491;41.942;24.220;2023-01-29T10:26:12;15.30;;;10.82;;
22648;SDS011;11491;41.942;24.220;2023-01-29T10:28:40;19.00;;;13.30;;
22648;SDS011;11491;41.942;24.220;2023-01-29T10:31:11;25.70;;;17.85;;
22648;SDS011;11491;41.942;24.220;2023-01-29T10:33:44;29.80;;;20.27;;
22648;SDS011;11491;41.942;24.220;2023-01-29T10:36:15;27.15;;;19.27;;
22648;SDS011;11491;41.942;24.220;2023-01-29T10:38:46;21.35;;;13.63;;
22648;SDS011;11491;41.942;24.220;2023-01-29T10:44:21;20.35;;;15.80;;
22648;SDS011;11491;41.942;24.220;2023-01-29T10:47:06;59.28;;;31.25;;
22648;SDS011;11491;41.942;24.220;2023-01-29T10:49:58;23.00;;;15.52;;
22648;SDS011;11491;41.942;24.220;2023-01-29T10:52:43;9.55;;;6.97;;
22648;SDS011;11491;41.942;24.220;2023-01-29T10:55:25;14.40;;;9.88;;
22648;SDS011;11491;41.942;24.220;2023-01-29T10:58:06;31.48;;;17.13;;
22648;SDS011;11491;41.942;24.220;2023-01-29T11:00:42;38.53;;;23.67;;
22648;SDS011;11491;41.942;24.220;2023-01-29T11:03:13;65.50;;;35.97;;
22648;SDS011;11491;41.942;24.220;2023-01-29T11:05:42;24.15;;;16.27;;
22648;SDS011;11491;41.942;24.220;2023-01-29T11:08:17;30.00;;;16.27;;
22648;SDS011;11491;41.942;24.220;2023-01-29T11:10:49;34.38;;;20.77;;
22648;SDS011;11491;41.942;24.220;2023-01-29T11:13:28;38.63;;;22.60;;
22648;SDS011;11491;41.942;24.220;2023-01-29T11:15:58;69.50;;;37.53;;
22648;SDS011;11491;41.942;24.220;2023-01-29T11:18:25;40.80;;;25.30;;
22648;SDS011;11491;41.942;24.220;2023-01-29T11:20:58;36.78;;;26.25;;
22648;SDS011;11491;41.942;24.220;2023-01-29T11:23:27;33.65;;;20.77;;
22648;SDS011;11491;41.942;24.220;2023-01-29T11:25:56;20.48;;;14.90;;
22648;SDS011;11491;41.942;24.220;2023-01-29T11:28:35;10.15;;;7.72;;
22648;SDS011;11491;41.942;24.220;2023-01-29T11:31:03;24.77;;;19.77;;
22648;SDS011;11491;41.942;24.220;2023-01-29T11:33:40;12.02;;;8.82;;
22648;SDS011;11491;41.942;24.220;2023-01-29T11:36:20;70.28;;;44.33;;
22648;SDS011;11491;41.942;24.220;2023-01-29T11:39:17;19.92;;;14.55;;
22648;SDS011;11491;41.942;24.220;2023-01-29T11:41:47;21.65;;;15.75;;
22648;SDS011;11491;41.942;24.220;2023-01-29T11:47:09;6.85;;;5.32;;
22648;SDS011;11491;41.942;24.220;2023-01-29T11:49:38;10.23;;;6.25;;
22648;SDS011;11491;41.942;24.220;2023-01-29T11:52:10;13.60;;;8.82;;
22648;SDS011;11491;41.942;24.220;2023-01-29T11:54:42;109.78;;;63.75;;
22648;SDS011;11491;41.942;24.220;2023-01-29T11:57:21;50.83;;;34.20;;
22648;SDS011;11491;41.942;24.220;2023-01-29T11:59:53;37.83;;;24.75;;
22648;SDS011;11491;41.942;24.220;2023-01-29T12:02:23;34.38;;;27.35;;
22648;SDS011;11491;41.942;24.220;2023-01-29T12:04:55;85.70;;;44.25;;
22648;SDS011;11491;41.942;24.220;2023-01-29T12:07:25;87.20;;;52.42;;
22648;SDS011;11491;41.942;24.220;2023-01-29T12:09:53;93.70;;;55.67;;
22648;SDS011;11491;41.942;24.220;2023-01-29T12:12:29;57.30;;;30.15;;
22648;SDS011;11491;41.942;24.220;2023-01-29T12:15:18;9.70;;;6.65;;
22648;SDS011;11491;41.942;24.220;2023-01-29T12:18:01;10.68;;;7.47;;
22648;SDS011;11491;41.942;24.220;2023-01-29T12:20:34;50.10;;;35.50;;
22648;SDS011;11491;41.942;24.220;2023-01-29T12:23:10;62.72;;;40.38;;
22648;SDS011;11491;41.942;24.220;2023-01-29T12:25:50;68.55;;;39.75;;
22648;SDS011;11491;41.942;24.220;2023-01-29T12:28:35;49.03;;;34.53;;
22648;SDS011;11491;41.942;24.220;2023-01-29T12:31:17;38.53;;;25.20;;
22648;SDS011;11491;41.942;24.220;2023-01-29T12:33:51;59.03;;;39.63;;
22648;SDS011;11491;41.942;24.220;2023-01-29T12:36:25;66.82;;;42.47;;
22648;SDS011;11491;41.942;24.220;2023-01-29T12:38:57;50.37;;;30.77;;
22648;SDS011;11491;41.942;24.220;2023-01-29T12:41:27;49.63;;;30.80;;
22648;SDS011;11491;41.942;24.220;2023-01-29T12:43:57;24.23;;;18.90;;
22648;SDS011;11491;41.942;24.220;2023-01-29T12:46:30;50.47;;;32.72;;
22648;SDS011;11491;41.942;24.220;2023-01-29T12:49:03;53.28;;;31.48;;
22648;SDS011;11491;41.942;24.220;2023-01-29T12:54:04;26.50;;;18.65;;
22648;SDS011;11491;41.942;24.220;2023-01-29T12:56:35;15.75;;;11.57;;
22648;SDS011;11491;41.942;24.220;2023-01-29T12:59:09;31.80;;;21.92;;
22648;SDS011;11491;41.942;24.220;2023-01-29T13:01:45;38.35;;;26.75;;
22648;SDS011;11491;41.942;24.220;2023-01-29T13:04:17;31.25;;;22.38;;
22648;SDS011;11491;41.942;24.220;2023-01-29T13:06:58;48.00;;;34.42;;
22648;SDS011;11491;41.942;24.220;2023-01-29T13:09:32;31.25;;;22.38;;
22648;SDS011;11491;41.942;24.220;2023-01-29T13:12:02;27.23;;;18.45;;
22648;SDS011;11491;41.942;24.220;2023-01-29T13:14:39;15.48;;;10.68;;
22648;SDS011;11491;41.942;24.220;2023-01-29T13:17:15;14.45;;;8.77;;
22648;SDS011;11491;41.942;24.220;2023-01-29T13:19:48;16.98;;;9.70;;
22648;SDS011;11491;41.942;24.220;2023-01-29T13:22:18;29.10;;;20.52;;
22648;SDS011;11491;41.942;24.220;2023-01-29T13:24:49;39.15;;;24.73;;
22648;SDS011;11491;41.942;24.220;2023-01-29T13:27:19;94.45;;;59.60;;
22648;SDS011;11491;41.942;24.220;2023-01-29T13:29:50;53.23;;;36.13;;
22648;SDS011;11491;41.942;24.220;2023-01-29T13:32:24;106.40;;;60.40;;
22648;SDS011;11491;41.942;24.220;2023-01-29T13:34:53;54.25;;;34.88;;
22648;SDS011;11491;41.942;24.220;2023-01-29T13:37:24;100.82;;;52.30;;
22648;SDS011;11491;41.942;24.220;2023-01-29T13:39:55;149.32;;;76.50;;
22648;SDS011;11491;41.942;24.220;2023-01-29T13:42:24;70.03;;;46.42;;
22648;SDS011;11491;41.942;24.220;2023-01-29T13:44:59;61.20;;;38.20;;
22648;SDS011;11491;41.942;24.220;2023-01-29T13:47:29;40.70;;;25.80;;
22648;SDS011;11491;41.942;24.220;2023-01-29T13:49:58;90.88;;;46.20;;
22648;SDS011;11491;41.942;24.220;2023-01-29T13:52:33;49.20;;;29.55;;
22648;SDS011;11491;41.942;24.220;2023-01-29T13:55:04;33.42;;;24.40;;
22648;SDS011;11491;41.942;24.220;2023-01-29T13:57:46;28.50;;;19.42;;
22648;SDS011;11491;41.942;24.220;2023-01-29T14:06:34;49.88;;;30.98;;
22648;SDS011;11491;41.942;24.220;2023-01-29T14:11:56;71.50;;;41.90;;
22648;SDS011;11491;41.942;24.220;2023-01-29T14:17:30;52.65;;;35.97;;
22648;SDS011;11491;41.942;24.220;2023-01-29T14:20:00;94.88;;;59.28;;
22648;SDS011;11491;41.942;24.220;2023-01-29T14:22:29;44.13;;;28.48;;
22648;SDS011;11491;41.942;24.220;2023-01-29T14:24:57;58.70;;;36.83;;
22648;SDS011;11491;41.942;24.220;2023-01-29T14:27:27;25.35;;;16.77;;
22648;SDS011;11491;41.942;24.220;2023-01-29T14:29:57;24.25;;;16.33;;
22648;SDS011;11491;41.942;24.220;2023-01-29T14:32:26;54.40;;;37.75;;
22648;SDS011;11491;41.942;24.220;2023-01-29T14:34:54;68.78;;;46.25;;
22648;SDS011;11491;41.942;24.220;2023-01-29T14:37:28;61.20;;;39.40;;
22648;SDS011;11491;41.942;24.220;2023-01-29T14:40:17;42.13;;;26.45;;
22648;SDS011;11491;41.942;24.220;2023-01-29T14:42:52;37.08;;;25.20;;
22648;SDS011;11491;41.942;24.220;2023-01-29T14:45:24;64.88;;;40.97;;
22648;SDS011;11491;41.942;24.220;2023-01-29T14:47:59;61.63;;;38.03;;
22648;SDS011;11491;41.942;24.220;2023-01-29T14:50:55;34.33;;;21.52;;
22648;SDS011;11491;41.942;24.220;2023-01-29T14:53:37;47.63;;;32.88;;
22648;SDS011;11491;41.942;24.220;2023-01-29T14:56:20;48.92;;;34.65;;
22648;SDS011;11491;41.942;24.220;2023-01-29T14:58:53;45.90;;;33.15;;
22648;SDS011;11491;41.942;24.220;2023-01-29T15:01:26;19.30;;;12.35;;
22648;SDS011;11491;41.942;24.220;2023-01-29T15:03:58;41.53;;;22.45;;
22648;SDS011;11491;41.942;24.220;2023-01-29T15:06:31;32.22;;;19.02;;